Guanaja, Honduras
Current Conditions -  °F | °C
As of 2:00 PM on Sunday 21 Dec 2014 (Local Time) from MHRO Reporting Station
Few Clouds Few Clouds  
Wind Chill: 82°   Ceiling: Unl
Heat Index: 85°   Visibility: 6mi
Dew Point: 66°   Wind: 9mph
Humidity: 58%   Direction: 100°E
Pressure: 29.94"   Gusts: NA
Location:  16.43°N, 85.88°W
Report Text: MHRO 212000Z 10008KT 9999 FEW025 28/19 Q1014 A2995 NOSIG
Loading
Personal Weather Stations






























Interactive Weather Map New forecast layout! Learn more

10-Day Weather Forecast

Advertisements
Track Severe Weather on mobile